Time;durP1;ratioP1;P1;durP2;ratioP2;P2;SDS_P1;SDS_P2;PMS_P1;PMS_P2;Temp;Humidity;BMP_temperature;BMP_pressure;BME280_temperature;BME280_humidity;BME280_pressure;Samples;Min_cycle;Max_cycle;Signal;HPM_P1;HPM_P2
2023/02/26 00:01:17;;;;;;;6.22;1.75;;;1.50;99.90;;;;;;4976138;28;20038;-72
2023/02/26 00:03:42;;;;;;;6.60;2.17;;;1.60;99.90;;;;;;4983052;28;20043;-71
2023/02/26 00:06:08;;;;;;;5.95;1.45;;;1.60;99.90;;;;;;4984212;28;20687;-71
2023/02/26 00:08:34;;;;;;;9.00;2.30;;;1.70;99.90;;;;;;4967526;28;20039;-72
2023/02/26 00:11:03;;;;;;;7.43;1.67;;;1.80;99.90;;;;;;4975443;28;20046;-71
2023/02/26 00:13:29;;;;;;;5.35;2.03;;;1.80;99.90;;;;;;4969955;28;20034;-72
2023/02/26 00:15:58;;;;;;;4.20;1.63;;;1.90;99.90;;;;;;4976962;28;20034;-72
2023/02/26 00:18:24;;;;;;;5.93;1.30;;;1.90;99.90;;;;;;4982420;28;20807;-71
2023/02/26 00:20:51;;;;;;;7.35;1.02;;;1.90;99.90;;;;;;4989512;28;20074;-71
2023/02/26 00:23:17;;;;;;;20.75;1.80;;;2.00;99.90;;;;;;4974197;28;20034;-71
2023/02/26 00:25:44;;;;;;;5.88;0.88;;;2.20;99.90;;;;;;4975993;28;20031;-71
2023/02/26 00:28:10;;;;;;;14.60;1.35;;;2.20;99.90;;;;;;4977212;28;20446;-72
2023/02/26 00:30:37;;;;;;;3.20;0.60;;;2.40;99.90;;;;;;4993244;28;20035;-71
2023/02/26 00:33:03;;;;;;;2.30;0.65;;;2.60;99.90;;;;;;4983657;28;20042;-71
2023/02/26 00:35:30;;;;;;;4.88;0.63;;;2.60;99.90;;;;;;4986594;28;20045;-71
2023/02/26 00:38:07;;;;;;;3.72;0.30;;;2.60;99.90;;;;;;4986510;28;20085;-72
2023/02/26 00:40:38;;;;;;;2.22;0.75;;;2.70;99.90;;;;;;4987521;28;20027;-71
2023/02/26 00:43:06;;;;;;;5.38;0.15;;;2.80;99.90;;;;;;4973983;28;20039;-71
2023/02/26 00:45:34;;;;;;;4.45;0.20;;;2.90;99.90;;;;;;4979700;28;20435;-73
2023/02/26 00:48:03;;;;;;;1.10;0.35;;;3.00;99.90;;;;;;4981421;28;20115;-71
2023/02/26 00:50:29;;;;;;;2.92;0.20;;;3.10;99.90;;;;;;4985455;28;20079;-72
2023/02/26 00:53:23;;;;;;;2.45;0.55;;;3.10;99.90;;;;;;4983381;28;20049;-72
2023/02/26 00:55:49;;;;;;;6.80;0.90;;;3.20;99.90;;;;;;4972359;28;20090;-70
2023/02/26 00:58:15;;;;;;;3.15;0.40;;;3.30;99.90;;;;;;4975649;28;20467;-72
2023/02/26 01:00:40;;;;;;;4.55;0.47;;;3.30;99.90;;;;;;4983368;28;20052;-70
2023/02/26 01:03:10;;;;;;;5.72;0.47;;;3.30;99.90;;;;;;4983247;28;20049;-70
2023/02/26 01:05:35;;;;;;;9.23;0.52;;;3.30;99.90;;;;;;4987140;28;20037;-71
2023/02/26 01:08:18;;;;;;;3.90;0.40;;;3.30;99.90;;;;;;4974826;28;20031;-72
2023/02/26 01:10:44;;;;;;;3.13;0.45;;;3.30;99.90;;;;;;4980689;28;20202;-72
2023/02/26 01:13:11;;;;;;;2.00;0.40;;;3.30;99.90;;;;;;4983182;28;20534;-72
2023/02/26 01:15:37;;;;;;;6.80;1.00;;;3.20;99.90;;;;;;4977821;28;20778;-72
2023/02/26 01:18:17;;;;;;;4.40;0.50;;;3.10;99.90;;;;;;4973472;28;20124;-70
2023/02/26 01:20:55;;;;;;;1.23;0.43;;;3.00;99.90;;;;;;4980603;28;20026;-71
2023/02/26 01:23:25;;;;;;;4.28;0.40;;;3.00;99.90;;;;;;4984570;28;20031;-71
2023/02/26 01:26:06;;;;;;;2.93;0.67;;;2.90;99.90;;;;;;4981960;28;20031;-73
2023/02/26 01:28:35;;;;;;;7.40;0.40;;;2.80;99.90;;;;;;4964613;28;20070;-71
2023/02/26 01:31:05;;;;;;;1.02;0.20;;;2.80;99.90;;;;;;4971052;28;20070;-72
2023/02/26 01:33:33;;;;;;;6.77;1.60;;;2.80;99.90;;;;;;4982014;28;20058;-73
2023/02/26 01:36:11;;;;;;;2.63;0.43;;;2.80;99.90;;;;;;4980337;28;20022;-71
2023/02/26 01:38:53;;;;;;;4.78;0.70;;;2.70;99.90;;;;;;4978208;28;20094;-71
2023/02/26 01:41:30;;;;;;;4.22;0.40;;;2.70;99.90;;;;;;4969811;28;20153;-71
2023/02/26 01:44:08;;;;;;;4.85;0.60;;;2.70;99.90;;;;;;4980426;28;20034;-70
2023/02/26 01:46:46;;;;;;;3.42;0.55;;;2.70;99.90;;;;;;4970101;28;20074;-71
2023/02/26 01:49:15;;;;;;;2.92;0.52;;;2.60;99.90;;;;;;4969841;28;20043;-72
2023/02/26 01:51:47;;;;;;;2.40;0.90;;;2.50;99.90;;;;;;4969657;28;20098;-70
2023/02/26 01:54:14;;;;;;;2.20;0.57;;;2.50;99.90;;;;;;5003639;28;20073;-71
2023/02/26 01:56:40;;;;;;;1.00;0.25;;;2.50;99.90;;;;;;4980517;28;20073;-72
2023/02/26 01:59:08;;;;;;;2.30;0.50;;;2.40;99.90;;;;;;4979259;28;20126;-71
2023/02/26 02:01:38;;;;;;;2.83;0.43;;;2.50;99.90;;;;;;4973061;28;20169;-74
2023/02/26 02:04:07;;;;;;;16.00;3.30;;;2.40;99.90;;;;;;4977745;28;20112;-72
2023/02/26 02:06:32;;;;;;;6.05;0.90;;;2.40;99.90;;;;;;4969647;28;20027;-73
2023/02/26 02:08:58;;;;;;;5.93;1.02;;;2.30;99.90;;;;;;4977331;28;20044;-70
2023/02/26 02:11:24;;;;;;;4.85;0.80;;;2.20;99.90;;;;;;4977837;28;20043;-72
2023/02/26 02:14:11;;;;;;;1.92;0.40;;;2.20;99.90;;;;;;4976228;28;20394;-72
2023/02/26 02:16:45;;;;;;;4.50;0.50;;;2.30;99.90;;;;;;4975379;28;20026;-70
2023/02/26 02:19:42;;;;;;;18.02;0.82;;;2.10;99.90;;;;;;4999347;28;20050;-73
2023/02/26 02:22:28;;;;;;;2.17;0.30;;;2.10;99.90;;;;;;4985142;28;20042;-71
2023/02/26 02:25:20;;;;;;;6.25;0.38;;;2.20;99.90;;;;;;4976818;28;20038;-71
2023/02/26 02:28:03;;;;;;;4.20;0.80;;;2.20;99.90;;;;;;4991014;28;20042;-70
2023/02/26 02:30:57;;;;;;;4.10;0.30;;;2.10;99.90;;;;;;4977424;28;20583;-72
2023/02/26 02:33:40;;;;;;;5.72;0.52;;;2.10;99.90;;;;;;4969401;28;20026;-71
2023/02/26 02:36:41;;;;;;;7.10;0.50;;;2.10;99.90;;;;;;4983080;28;20178;-73
2023/02/26 02:39:20;;;;;;;3.13;0.50;;;2.10;99.90;;;;;;4957999;28;20046;-70
2023/02/26 02:42:15;;;;;;;4.60;0.20;;;2.10;99.90;;;;;;4971923;28;20733;-70
2023/02/26 02:44:45;;;;;;;1.83;0.20;;;2.10;99.90;;;;;;4968695;28;20061;-72
2023/02/26 02:47:14;;;;;;;2.17;0.30;;;2.20;99.90;;;;;;4983374;28;20146;-71
2023/02/26 02:50:01;;;;;;;6.22;0.40;;;2.20;99.90;;;;;;4976996;28;20611;-71
2023/02/26 02:52:49;;;;;;;4.97;0.50;;;2.20;99.90;;;;;;4969608;28;20530;-72
2023/02/26 02:55:21;;;;;;;3.20;0.47;;;2.10;99.90;;;;;;4984166;28;20048;-70
2023/02/26 02:58:08;;;;;;;2.42;0.30;;;2.10;99.90;;;;;;4986093;28;20049;-73
2023/02/26 03:00:39;;;;;;;1.85;0.30;;;2.10;99.90;;;;;;4971788;28;20023;-72
2023/02/26 03:03:17;;;;;;;4.00;0.75;;;2.10;99.90;;;;;;4976640;28;20058;-70
2023/02/26 03:05:43;;;;;;;2.63;0.30;;;2.10;99.90;;;;;;4968860;28;20487;-71
2023/02/26 03:08:16;;;;;;;3.03;0.30;;;2.00;99.90;;;;;;4968422;28;20086;-71
2023/02/26 03:10:42;;;;;;;6.00;0.73;;;2.00;99.90;;;;;;4974025;28;20573;-71
2023/02/26 03:13:16;;;;;;;1.20;0.57;;;2.00;99.90;;;;;;4970188;28;20085;-70
2023/02/26 03:16:13;;;;;;;4.70;0.30;;;2.00;99.90;;;;;;4993991;28;20460;-72
2023/02/26 03:19:16;;;;;;;5.15;0.52;;;2.00;99.90;;;;;;4967714;28;20038;-73
2023/02/26 03:22:02;;;;;;;5.90;1.27;;;2.00;99.90;;;;;;4996476;28;20482;-70
2023/02/26 03:24:39;;;;;;;1.58;0.65;;;2.00;99.90;;;;;;4941736;28;20487;-71
2023/02/26 03:27:32;;;;;;;4.50;0.20;;;2.00;99.90;;;;;;4974574;28;20560;-72
2023/02/26 03:30:15;;;;;;;1.30;0.30;;;1.90;99.90;;;;;;4971223;28;20066;-69
2023/02/26 03:33:18;;;;;;;1.38;0.20;;;1.80;99.90;;;;;;4968408;28;20022;-71
2023/02/26 03:35:56;;;;;;;1.05;0.28;;;1.80;99.90;;;;;;4960840;28;20030;-71
2023/02/26 03:38:31;;;;;;;6.90;0.32;;;1.80;99.90;;;;;;4970569;28;20549;-71
2023/02/26 03:41:09;;;;;;;0.40;0.03;;;1.80;99.90;;;;;;4971172;28;20480;-71
2023/02/26 03:43:55;;;;;;;4.43;0.32;;;1.80;99.90;;;;;;4969474;28;20023;-71
2023/02/26 03:46:49;;;;;;;1.05;0.40;;;1.70;99.90;;;;;;4970621;28;20451;-71
2023/02/26 03:49:23;;;;;;;7.28;0.22;;;1.70;99.90;;;;;;4983312;28;20104;-71
2023/02/26 03:51:50;;;;;;;3.13;0.20;;;1.60;99.90;;;;;;4992863;28;20113;-73
2023/02/26 03:54:32;;;;;;;0.93;0.30;;;1.70;99.90;;;;;;4990905;28;20038;-72
2023/02/26 03:56:57;;;;;;;0.65;0.05;;;1.70;99.90;;;;;;4979610;28;20027;-70
2023/02/26 03:59:23;;;;;;;4.30;0.50;;;1.60;99.90;;;;;;4987808;28;20380;-71
2023/02/26 04:02:03;;;;;;;5.63;0.40;;;1.60;99.90;;;;;;4986667;28;20110;-72
2023/02/26 04:04:44;;;;;;;4.13;0.63;;;1.60;99.90;;;;;;4987673;28;20116;-71
2023/02/26 04:07:12;;;;;;;3.75;0.40;;;1.60;99.90;;;;;;4962921;28;20054;-71
2023/02/26 04:09:42;;;;;;;29.40;1.48;;;1.60;99.90;;;;;;4987095;28;20034;-71
2023/02/26 04:12:08;;;;;;;5.63;0.30;;;1.60;99.90;;;;;;4986582;28;20120;-71
2023/02/26 04:14:34;;;;;;;1.73;0.32;;;1.60;99.90;;;;;;4991332;28;20490;-73
2023/02/26 04:16:59;;;;;;;2.33;0.32;;;1.60;99.90;;;;;;4988545;28;20037;-70
2023/02/26 04:19:25;;;;;;;11.07;0.30;;;1.60;99.90;;;;;;4992794;28;20042;-70
2023/02/26 04:21:53;;;;;;;3.58;0.73;;;1.50;99.90;;;;;;4999354;28;20529;-71
2023/02/26 04:24:19;;;;;;;1.42;0.10;;;1.40;99.90;;;;;;4987131;28;20518;-70
2023/02/26 04:26:44;;;;;;;3.13;0.20;;;1.50;99.90;;;;;;4993856;28;20034;-71
2023/02/26 04:29:10;;;;;;;1.50;0.10;;;1.50;99.90;;;;;;4995713;28;20045;-70
2023/02/26 04:31:36;;;;;;;2.47;0.80;;;1.50;99.90;;;;;;4974809;28;20502;-70
2023/02/26 04:34:01;;;;;;;2.85;0.30;;;1.50;99.90;;;;;;4986974;28;20045;-70
2023/02/26 04:36:27;;;;;;;3.83;0.52;;;1.50;99.90;;;;;;5006428;28;20045;-72
2023/02/26 04:38:53;;;;;;;1.52;0.20;;;1.40;99.90;;;;;;5005791;28;20129;-72
2023/02/26 04:41:19;;;;;;;3.45;0.30;;;1.40;99.90;;;;;;5003337;28;20050;-70
2023/02/26 04:43:44;;;;;;;5.55;0.40;;;1.40;99.90;;;;;;4999005;28;20030;-71
2023/02/26 04:46:13;;;;;;;2.15;0.20;;;1.40;99.90;;;;;;5006266;28;20041;-71
2023/02/26 04:48:38;;;;;;;3.85;0.80;;;1.30;99.90;;;;;;4979258;28;20046;-71
2023/02/26 04:51:04;;;;;;;1.83;0.60;;;1.30;99.90;;;;;;4986328;28;20510;-72
2023/02/26 04:53:30;;;;;;;4.57;0.32;;;1.30;99.90;;;;;;4985769;28;20540;-72
2023/02/26 04:55:56;;;;;;;0.65;0.20;;;1.30;99.90;;;;;;4975735;28;20038;-71
2023/02/26 04:58:21;;;;;;;3.65;0.82;;;1.30;99.90;;;;;;4995791;28;20606;-71
2023/02/26 05:00:52;;;;;;;3.40;0.65;;;1.20;99.90;;;;;;4997017;28;20038;-71
2023/02/26 05:03:18;;;;;;;3.40;0.15;;;1.20;99.90;;;;;;5001007;28;20083;-71
2023/02/26 05:05:44;;;;;;;7.28;0.38;;;1.20;99.90;;;;;;5004630;28;20038;-71
2023/02/26 05:08:10;;;;;;;3.78;0.40;;;1.10;99.90;;;;;;4973274;28;20038;-72
2023/02/26 05:10:35;;;;;;;2.17;0.50;;;1.10;99.90;;;;;;5001291;28;20034;-70
2023/02/26 05:13:01;;;;;;;2.63;0.28;;;1.00;99.90;;;;;;4983981;28;20026;-71
2023/02/26 05:15:27;;;;;;;2.10;0.80;;;1.00;99.90;;;;;;4990680;28;20042;-72
2023/02/26 05:17:52;;;;;;;6.82;0.88;;;1.00;99.90;;;;;;5003838;28;20037;-71
2023/02/26 05:20:18;;;;;;;2.80;0.28;;;1.00;99.90;;;;;;5000032;28;20084;-70
2023/02/26 05:22:44;;;;;;;2.90;0.20;;;1.00;99.90;;;;;;4989866;28;20038;-72
2023/02/26 05:25:13;;;;;;;6.05;0.15;;;1.00;99.90;;;;;;4998325;28;20034;-71
2023/02/26 05:27:43;;;;;;;4.28;0.20;;;0.90;99.90;;;;;;5000502;28;20855;-71
2023/02/26 05:30:12;;;;;;;3.53;0.77;;;0.90;99.90;;;;;;4997936;28;20034;-72
2023/02/26 05:32:38;;;;;;;3.90;0.22;;;0.90;99.90;;;;;;4989584;28;20040;-71
2023/02/26 05:35:04;;;;;;;4.25;0.22;;;1.00;99.90;;;;;;4989721;28;20042;-72
2023/02/26 05:37:30;;;;;;;2.30;0.30;;;0.90;99.90;;;;;;4975499;28;20041;-71
2023/02/26 05:39:55;;;;;;;3.03;0.22;;;1.00;99.90;;;;;;5008289;28;20053;-70
2023/02/26 05:42:21;;;;;;;3.15;0.10;;;0.90;99.90;;;;;;4999408;28;20038;-71
2023/02/26 05:44:47;;;;;;;3.30;0.45;;;0.90;99.90;;;;;;4997035;28;20034;-71
2023/02/26 05:47:12;;;;;;;3.65;0.85;;;0.90;99.90;;;;;;4998046;28;20229;-71
2023/02/26 05:49:38;;;;;;;1.15;0.25;;;0.90;99.90;;;;;;4996880;28;20045;-71
2023/02/26 05:52:04;;;;;;;1.90;0.77;;;0.90;99.90;;;;;;4997092;28;20034;-71
2023/02/26 05:54:29;;;;;;;2.60;0.35;;;0.90;99.90;;;;;;4993358;28;20605;-70
2023/02/26 05:56:55;;;;;;;6.07;0.50;;;0.90;99.90;;;;;;4997302;28;20076;-70
2023/02/26 05:59:21;;;;;;;2.00;0.30;;;0.90;99.90;;;;;;4997628;28;20059;-71
2023/02/26 06:01:46;;;;;;;5.68;0.20;;;1.00;99.90;;;;;;4993990;28;20827;-71
2023/02/26 06:04:12;;;;;;;1.88;0.43;;;0.90;99.90;;;;;;5001225;28;20403;-71
2023/02/26 06:06:38;;;;;;;4.30;1.05;;;0.90;99.90;;;;;;5004690;28;20058;-72
2023/02/26 06:09:03;;;;;;;2.75;0.20;;;0.80;99.90;;;;;;4992347;28;20041;-71
2023/02/26 06:11:29;;;;;;;2.47;0.40;;;0.80;99.90;;;;;;4989950;28;20037;-71
2023/02/26 06:13:55;;;;;;;6.68;0.65;;;0.80;99.90;;;;;;5005199;28;20035;-71
2023/02/26 06:16:21;;;;;;;2.70;0.45;;;0.80;99.90;;;;;;4997646;28;20058;-70
2023/02/26 06:18:47;;;;;;;5.32;0.55;;;0.70;99.90;;;;;;5001368;28;20041;-72
2023/02/26 06:21:13;;;;;;;2.90;0.40;;;0.70;99.90;;;;;;5000017;28;20034;-71
2023/02/26 06:23:38;;;;;;;5.00;1.17;;;0.70;99.90;;;;;;4999525;28;20540;-70
2023/02/26 06:26:05;;;;;;;3.95;0.20;;;0.70;99.90;;;;;;5000780;28;20041;-71
2023/02/26 06:28:31;;;;;;;3.05;0.15;;;0.70;99.90;;;;;;5000015;28;20128;-71
2023/02/26 06:30:56;;;;;;;0.90;0.30;;;0.70;99.90;;;;;;4985645;28;20168;-71
2023/02/26 06:33:22;;;;;;;2.58;0.30;;;0.70;99.90;;;;;;4999587;28;20041;-72
2023/02/26 06:35:49;;;;;;;4.65;0.73;;;0.80;99.90;;;;;;4992887;28;20115;-71
2023/02/26 06:38:15;;;;;;;3.17;0.73;;;0.70;99.90;;;;;;4998943;28;20185;-70
2023/02/26 06:40:41;;;;;;;4.03;0.63;;;0.80;99.90;;;;;;4998718;28;20525;-71
2023/02/26 06:43:06;;;;;;;3.50;0.20;;;0.80;99.90;;;;;;4996129;28;20034;-71
2023/02/26 06:45:32;;;;;;;3.00;0.30;;;0.80;99.90;;;;;;5006946;28;20033;-72
2023/02/26 06:47:58;;;;;;;5.70;0.55;;;0.70;99.90;;;;;;4997881;28;20662;-71
2023/02/26 06:50:23;;;;;;;2.42;0.40;;;0.70;99.90;;;;;;4998045;28;20088;-71
2023/02/26 06:52:50;;;;;;;1.45;0.20;;;0.60;99.90;;;;;;4995546;28;20513;-72
2023/02/26 06:55:15;;;;;;;3.65;0.28;;;0.60;99.90;;;;;;4996563;28;20034;-72
2023/02/26 06:57:41;;;;;;;1.80;0.20;;;0.50;99.90;;;;;;4988026;28;20101;-71
2023/02/26 07:00:07;;;;;;;2.70;0.40;;;0.50;99.90;;;;;;4994561;28;20113;-70
2023/02/26 07:02:33;;;;;;;1.45;0.38;;;0.60;99.90;;;;;;4990593;28;20058;-71
2023/02/26 07:04:58;;;;;;;3.35;0.20;;;0.60;99.90;;;;;;4986228;28;20046;-71
2023/02/26 07:07:24;;;;;;;2.92;0.20;;;0.60;99.90;;;;;;4987187;28;20034;-70
2023/02/26 07:09:50;;;;;;;2.35;0.28;;;0.60;99.90;;;;;;4987898;28;20798;-71
2023/02/26 07:12:15;;;;;;;5.20;1.13;;;0.70;99.90;;;;;;4987211;28;20042;-71
2023/02/26 07:14:44;;;;;;;5.53;0.30;;;0.70;99.90;;;;;;4969890;28;20035;-71
2023/02/26 07:17:19;;;;;;;8.10;0.65;;;0.80;99.90;;;;;;4987736;28;20841;-70
2023/02/26 07:19:48;;;;;;;3.30;0.25;;;1.00;99.90;;;;;;4970503;28;20089;-71
2023/02/26 07:22:14;;;;;;;1.58;0.22;;;1.00;99.90;;;;;;4985170;28;20049;-71
2023/02/26 07:24:41;;;;;;;0.82;0.15;;;1.00;99.90;;;;;;4986204;28;20030;-71
2023/02/26 07:27:07;;;;;;;2.13;0.45;;;1.00;99.90;;;;;;4986694;28;20506;-71
2023/02/26 07:29:33;;;;;;;4.93;1.30;;;1.00;99.90;;;;;;4986531;28;20046;-71
2023/02/26 07:31:58;;;;;;;4.78;0.40;;;1.10;99.90;;;;;;4994828;28;20422;-71
2023/02/26 07:34:24;;;;;;;1.70;0.52;;;1.10;99.90;;;;;;4987875;28;20034;-72
2023/02/26 07:36:49;;;;;;;6.93;0.30;;;1.10;99.90;;;;;;4984642;28;20042;-71
2023/02/26 07:39:15;;;;;;;9.35;0.77;;;1.20;99.90;;;;;;4987141;28;20038;-71
2023/02/26 07:41:40;;;;;;;1.00;0.10;;;1.30;99.90;;;;;;4975176;28;20065;-73
2023/02/26 07:44:06;;;;;;;0.90;0.30;;;1.30;99.90;;;;;;4988851;28;20033;-71
2023/02/26 07:46:32;;;;;;;2.30;0.13;;;1.40;99.90;;;;;;4989063;28;20113;-71
2023/02/26 07:48:58;;;;;;;1.15;0.50;;;1.40;99.90;;;;;;4987825;28;20049;-72
2023/02/26 07:51:24;;;;;;;3.80;0.45;;;1.40;99.90;;;;;;4990317;28;20034;-71
2023/02/26 07:53:49;;;;;;;1.42;0.10;;;1.50;99.90;;;;;;4993382;28;20042;-71
2023/02/26 07:56:15;;;;;;;1.85;0.38;;;1.70;99.90;;;;;;4988072;28;20045;-71
2023/02/26 07:58:40;;;;;;;5.03;0.40;;;1.70;99.90;;;;;;4988400;28;20050;-71
2023/02/26 08:01:06;;;;;;;7.55;0.82;;;1.80;99.90;;;;;;4984740;28;20061;-71
2023/02/26 08:03:31;;;;;;;2.47;0.30;;;1.90;99.90;;;;;;4985319;28;20038;-72
2023/02/26 08:05:59;;;;;;;2.22;0.20;;;2.00;99.90;;;;;;4983583;28;20096;-72
2023/02/26 08:08:25;;;;;;;0.82;0.10;;;2.10;99.90;;;;;;4994263;28;20037;-71
2023/02/26 08:10:51;;;;;;;7.93;0.38;;;2.20;99.90;;;;;;4990088;28;20379;-71
2023/02/26 08:13:17;;;;;;;5.57;0.85;;;2.40;99.90;;;;;;4989458;28;20045;-72
2023/02/26 08:15:42;;;;;;;1.67;0.20;;;2.50;99.90;;;;;;4992201;28;20660;-72
2023/02/26 08:18:09;;;;;;;2.05;0.20;;;2.60;99.90;;;;;;4994851;28;20465;-72
2023/02/26 08:20:35;;;;;;;2.35;0.20;;;2.80;99.90;;;;;;4996015;28;20056;-72
2023/02/26 08:23:00;;;;;;;3.20;0.40;;;3.00;99.90;;;;;;4994946;28;20505;-72
2023/02/26 08:25:26;;;;;;;4.85;0.17;;;3.10;99.90;;;;;;4993027;28;20034;-72
2023/02/26 08:27:52;;;;;;;3.70;0.40;;;3.20;99.90;;;;;;4992944;28;20030;-72
2023/02/26 08:30:18;;;;;;;1.65;0.50;;;3.30;99.90;;;;;;4994094;28;20026;-72
2023/02/26 08:32:44;;;;;;;2.88;0.20;;;3.20;99.90;;;;;;4996215;28;20290;-71
2023/02/26 08:35:11;;;;;;;1.33;0.20;;;3.40;99.90;;;;;;5000951;28;20030;-72
2023/02/26 08:37:37;;;;;;;5.25;0.57;;;3.40;99.90;;;;;;4997499;28;20118;-73
2023/02/26 08:40:05;;;;;;;4.38;0.45;;;3.50;99.90;;;;;;4999686;28;20485;-72
2023/02/26 08:42:31;;;;;;;2.58;0.38;;;3.60;99.90;;;;;;4993081;28;20081;-72
2023/02/26 08:44:57;;;;;;;3.63;0.20;;;3.70;99.90;;;;;;4995947;28;20046;-72
2023/02/26 08:47:22;;;;;;;2.22;0.52;;;3.70;99.90;;;;;;4990898;28;20452;-72
2023/02/26 08:49:48;;;;;;;2.63;0.20;;;3.70;99.90;;;;;;4988412;28;20034;-72
2023/02/26 08:52:14;;;;;;;18.90;0.63;;;3.70;99.90;;;;;;4994818;28;20759;-72
2023/02/26 08:54:39;;;;;;;4.65;0.85;;;3.80;99.90;;;;;;4975809;28;20466;-72
2023/02/26 08:57:05;;;;;;;2.53;0.22;;;3.70;99.90;;;;;;5001783;28;20062;-72
2023/02/26 08:59:31;;;;;;;1.13;0.22;;;3.80;99.90;;;;;;4989451;28;20065;-72
2023/02/26 09:01:56;;;;;;;1.23;0.20;;;3.80;99.90;;;;;;4989302;28;20069;-71
2023/02/26 09:04:22;;;;;;;13.60;0.65;;;3.80;99.90;;;;;;4972823;28;20121;-72
2023/02/26 09:06:47;;;;;;;0.80;0.20;;;3.90;99.90;;;;;;4971036;28;20038;-72
2023/02/26 09:09:13;;;;;;;2.17;0.20;;;3.90;99.90;;;;;;4990249;28;20401;-72
2023/02/26 09:11:39;;;;;;;1.38;0.10;;;3.90;99.60;;;;;;4993672;28;20034;-72
2023/02/26 09:14:05;;;;;;;0.73;0.10;;;4.00;99.60;;;;;;4988781;28;20056;-72
2023/02/26 09:16:34;;;;;;;1.48;0.17;;;4.10;98.70;;;;;;4989846;28;20487;-71
2023/02/26 09:18:59;;;;;;;1.85;0.65;;;4.10;98.60;;;;;;4988923;28;20038;-72
2023/02/26 09:21:25;;;;;;;1.83;0.15;;;4.00;98.40;;;;;;4990287;28;20410;-72
2023/02/26 09:23:50;;;;;;;2.03;0.40;;;4.10;98.60;;;;;;4997474;28;20125;-73
2023/02/26 09:26:16;;;;;;;5.07;0.85;;;4.10;98.60;;;;;;5005412;28;20037;-73
2023/02/26 09:28:42;;;;;;;0.73;0.13;;;4.20;97.80;;;;;;4990308;28;20042;-73
2023/02/26 09:31:10;;;;;;;0.93;0.20;;;4.20;97.40;;;;;;4994509;28;20117;-71
2023/02/26 09:33:36;;;;;;;9.13;1.08;;;4.10;97.70;;;;;;4998156;28;20108;-72
2023/02/26 09:36:01;;;;;;;2.38;0.20;;;4.20;97.60;;;;;;4989763;28;20395;-72
2023/02/26 09:38:27;;;;;;;1.13;0.10;;;4.30;97.80;;;;;;4997706;28;20038;-72
2023/02/26 09:40:58;;;;;;;0.30;0.00;;;4.30;97.20;;;;;;5000445;28;20033;-71
2023/02/26 09:43:54;;;;;;;0.45;0.08;;;4.30;97.90;;;;;;5000773;28;20129;-72
2023/02/26 09:46:43;;;;;;;1.17;0.10;;;4.40;97.20;;;;;;4985124;28;20045;-72
2023/02/26 09:49:20;;;;;;;1.52;0.30;;;4.40;97.60;;;;;;4984438;28;20081;-72
2023/02/26 09:51:51;;;;;;;1.95;0.20;;;4.50;97.90;;;;;;5000000;28;20026;-73
2023/02/26 09:54:26;;;;;;;4.68;0.75;;;4.50;97.90;;;;;;5008455;28;20096;-71
2023/02/26 09:56:55;;;;;;;2.17;0.85;;;4.60;97.20;;;;;;5004226;28;20026;-72
2023/02/26 09:59:24;;;;;;;1.55;0.20;;;4.70;97.00;;;;;;4975317;28;20572;-72
2023/02/26 10:01:50;;;;;;;0.85;0.10;;;4.70;97.20;;;;;;4984697;28;20038;-72
2023/02/26 10:04:42;;;;;;;5.53;1.30;;;4.80;96.50;;;;;;4984341;28;20046;-71
2023/02/26 10:07:14;;;;;;;2.05;0.52;;;4.70;96.90;;;;;;4988448;28;20109;-71
2023/02/26 10:10:10;;;;;;;1.63;0.25;;;4.70;97.10;;;;;;4996096;28;20046;-72
2023/02/26 10:12:39;;;;;;;3.05;0.77;;;4.80;97.20;;;;;;4990892;28;20050;-71
2023/02/26 10:15:23;;;;;;;0.30;0.00;;;4.80;96.70;;;;;;5010699;28;20045;-75
2023/02/26 10:18:07;;;;;;;1.10;0.20;;;4.80;96.40;;;;;;4987674;28;20038;-71
2023/02/26 10:20:38;;;;;;;0.15;0.13;;;4.80;96.60;;;;;;5000481;28;20117;-71
2023/02/26 10:23:16;;;;;;;4.07;0.28;;;4.80;97.00;;;;;;4977919;28;20034;-71
2023/02/26 10:25:51;;;;;;;1.30;0.08;;;4.80;96.90;;;;;;5005286;28;20072;-71
2023/02/26 10:28:44;;;;;;;1.45;0.20;;;4.80;97.10;;;;;;4996559;28;20046;-71
2023/02/26 10:31:21;;;;;;;2.20;0.25;;;4.90;96.80;;;;;;4983694;28;20038;-71
2023/02/26 10:34:25;;;;;;;0.40;0.10;;;4.90;96.80;;;;;;5007478;28;20860;-72
2023/02/26 10:37:11;;;;;;;3.38;0.68;;;5.00;96.80;;;;;;4979483;28;20030;-72
2023/02/26 10:39:47;;;;;;;0.60;0.10;;;5.00;97.20;;;;;;4990097;28;20066;-73
2023/02/26 10:42:32;;;;;;;2.65;0.20;;;5.10;97.10;;;;;;4979011;28;20030;-71
2023/02/26 10:45:40;;;;;;;0.57;0.10;;;5.10;96.80;;;;;;4987960;28;20034;-71
2023/02/26 10:48:52;;;;;;;1.30;0.30;;;5.20;96.50;;;;;;4991076;28;20053;-71
2023/02/26 10:51:21;;;;;;;2.05;0.50;;;5.30;96.60;;;;;;4974582;28;20034;-71
2023/02/26 10:54:04;;;;;;;1.67;0.20;;;5.40;96.50;;;;;;4979134;28;20034;-72
2023/02/26 10:56:33;;;;;;;2.40;0.10;;;5.50;96.30;;;;;;5000231;28;20035;-71
2023/02/26 10:59:02;;;;;;;2.00;0.03;;;5.60;96.20;;;;;;4972622;28;20027;-71
2023/02/26 11:01:29;;;;;;;0.40;0.20;;;5.70;96.10;;;;;;4976904;28;20039;-71
2023/02/26 11:04:22;;;;;;;5.88;0.82;;;5.80;96.40;;;;;;4966404;28;20081;-72
2023/02/26 11:06:50;;;;;;;0.52;0.20;;;5.80;96.10;;;;;;4967934;28;20030;-72
2023/02/26 11:09:31;;;;;;;2.42;0.20;;;5.80;95.40;;;;;;4976045;28;20138;-71
2023/02/26 11:12:13;;;;;;;4.97;0.90;;;5.60;95.60;;;;;;4965527;28;20499;-71
2023/02/26 11:14:40;;;;;;;3.42;0.20;;;5.50;95.70;;;;;;4966809;28;20038;-72
2023/02/26 11:17:31;;;;;;;0.93;0.20;;;5.40;96.50;;;;;;4967913;28;20035;-72
2023/02/26 11:20:32;;;;;;;3.42;0.20;;;5.50;96.60;;;;;;4968632;28;20026;-71
2023/02/26 11:23:01;;;;;;;1.00;0.15;;;5.40;96.80;;;;;;4969303;28;20041;-72
2023/02/26 11:25:30;;;;;;;1.73;0.15;;;5.50;96.30;;;;;;4967438;28;20047;-71
2023/02/26 11:28:17;;;;;;;6.65;0.32;;;5.50;96.90;;;;;;4970077;28;20046;-71
2023/02/26 11:30:45;;;;;;;4.45;0.22;;;5.60;96.70;;;;;;4965054;28;20058;-73
2023/02/26 11:33:22;;;;;;;3.30;0.50;;;5.60;96.40;;;;;;4967444;28;20035;-71
2023/02/26 11:35:48;;;;;;;2.83;1.02;;;5.70;97.00;;;;;;4967766;28;20516;-72
2023/02/26 11:38:24;;;;;;;0.30;0.00;;;5.80;96.50;;;;;;4974764;28;20515;-72
2023/02/26 11:40:54;;;;;;;2.38;0.15;;;5.90;95.70;;;;;;4979841;28;20043;-72
2023/02/26 11:43:22;;;;;;;;;;;5.90;95.90;;;;;;4970824;28;20057;-71
2023/02/26 11:45:53;;;;;;;3.17;0.20;;;6.00;95.30;;;;;;4969816;28;19922;-71
2023/02/26 11:48:23;;;;;;;1.60;0.30;;;6.00;95.70;;;;;;4967952;28;20043;-71
2023/02/26 11:50:53;;;;;;;3.95;0.30;;;5.90;95.60;;;;;;4972549;28;20041;-72
2023/02/26 11:53:35;;;;;;;1.35;0.30;;;5.90;95.80;;;;;;4967425;28;20054;-72
2023/02/26 11:56:12;;;;;;;1.98;0.20;;;5.80;96.30;;;;;;4965668;28;20039;-72
2023/02/26 11:58:43;;;;;;;1.10;0.45;;;5.80;95.50;;;;;;4963956;28;20031;-72
2023/02/26 12:01:09;;;;;;;;;;;5.60;95.30;;;;;;4966803;28;20085;-71
2023/02/26 12:03:39;;;;;;;1.33;0.20;;;5.50;95.90;;;;;;4969666;28;20373;-71
2023/02/26 12:06:08;;;;;;;5.00;0.28;;;5.30;95.90;;;;;;4966952;28;20495;-72
2023/02/26 12:08:38;;;;;;;0.30;0.00;;;5.30;96.40;;;;;;4967382;28;20030;-71
2023/02/26 12:11:07;;;;;;;2.92;0.10;;;5.40;95.90;;;;;;4962329;28;20448;-72
2023/02/26 12:13:40;;;;;;;1.27;0.10;;;5.40;95.80;;;;;;4968251;28;20035;-72
2023/02/26 12:16:29;;;;;;;2.83;0.20;;;5.40;96.20;;;;;;4966920;28;20093;-72
2023/02/26 12:19:27;;;;;;;0.60;0.10;;;5.40;96.10;;;;;;4965352;28;20407;-72
2023/02/26 12:22:25;;;;;;;0.73;0.10;;;5.40;96.40;;;;;;4965573;28;20098;-72
2023/02/26 12:25:36;;;;;;;2.40;0.10;;;5.50;95.70;;;;;;4979657;28;20030;-72
2023/02/26 12:28:40;;;;;;;0.77;0.10;;;5.50;96.00;;;;;;4957084;28;20034;-72
2023/02/26 12:31:05;;;;;;;0.50;0.20;;;5.50;96.00;;;;;;4998420;28;20132;-72
2023/02/26 12:33:46;;;;;;;0.93;0.03;;;5.60;96.30;;;;;;4984298;28;20070;-72
2023/02/26 12:36:26;;;;;;;4.70;0.25;;;5.60;96.40;;;;;;4996122;28;20038;-72
2023/02/26 12:39:23;;;;;;;2.38;0.13;;;5.70;96.60;;;;;;4984500;28;20685;-73
2023/02/26 12:42:28;;;;;;;2.75;0.75;;;5.80;96.50;;;;;;4983736;28;20034;-73
2023/02/26 12:44:53;;;;;;;6.03;1.98;;;5.90;95.50;;;;;;4984499;28;20034;-72
2023/02/26 12:47:44;;;;;;;1.17;0.30;;;5.90;95.60;;;;;;4971976;28;20038;-72
2023/02/26 12:50:33;;;;;;;2.40;0.20;;;5.80;95.70;;;;;;4979367;28;20049;-72
2023/02/26 12:53:16;;;;;;;1.38;0.20;;;5.80;96.10;;;;;;4982290;28;20030;-72
2023/02/26 12:56:05;;;;;;;3.95;0.15;;;5.80;96.40;;;;;;4983133;28;20034;-73
2023/02/26 12:58:45;;;;;;;0.98;0.13;;;5.90;96.30;;;;;;4984103;28;20038;-73
2023/02/26 13:01:23;;;;;;;0.50;0.00;;;5.90;96.00;;;;;;4980192;28;20038;-72
2023/02/26 13:04:03;;;;;;;1.90;0.10;;;5.90;96.20;;;;;;4985134;28;20109;-73
2023/02/26 13:06:48;;;;;;;;;;;5.90;95.40;;;;;;5001604;28;20038;-72
2023/02/26 13:09:32;;;;;;;0.10;0.00;;;6.00;95.60;;;;;;4982319;28;19918;-73
2023/02/26 13:12:36;;;;;;;2.55;0.10;;;6.00;95.70;;;;;;4967774;28;20399;-72
2023/02/26 13:15:14;;;;;;;0.50;0.10;;;6.00;96.00;;;;;;4983570;28;20030;-74
2023/02/26 13:17:58;;;;;;;2.67;0.20;;;6.00;96.00;;;;;;4984568;28;20426;-73
2023/02/26 13:20:26;;;;;;;2.92;0.95;;;6.00;96.70;;;;;;4987390;28;20054;-72
2023/02/26 13:22:58;;;;;;;4.78;0.25;;;6.10;96.60;;;;;;4987615;28;20108;-73
2023/02/26 13:25:49;;;;;;;3.10;0.35;;;6.10;96.60;;;;;;4992282;28;20043;-72